TimeEST,TemperatureF,Dew PointF,Humidity,Sea Level PressureIn,VisibilityMPH,Wind Direction,Wind SpeedMPH,Gust SpeedMPH,PrecipitationIn,Events,Conditions,WindDirDegrees,DateUTC
12:15 AM,35.2,34.7,98,30.06,2.5,NNE,5.8,-,0.01,Rain,Rain,30,2013-02-08 05:15:00
12:35 AM,35.2,34.7,98,30.06,3.0,NNE,3.5,-,0.02,Rain,Rain,30,2013-02-08 05:35:00
12:55 AM,35.2,34.7,98,30.05,3.0,NNE,5.8,-,0.03,Rain,Rain,30,2013-02-08 05:55:00
1:15 AM,35.2,34.7,98,30.04,3.0,NNE,5.8,-,N/A,Rain,Rain,20,2013-02-08 06:15:00
1:35 AM,35.2,34.5,97,30.03,3.0,NNE,5.8,-,0.01,Rain,Rain,30,2013-02-08 06:35:00
1:55 AM,35.2,34.7,98,30.01,4.0,North,4.6,-,0.01,Rain,Light Rain,10,2013-02-08 06:55:00
2:15 AM,35.6,34.7,97,30.00,5.0,NNE,8.1,-,N/A,Rain,Rain,30,2013-02-08 07:15:00
2:35 AM,35.6,34.7,97,29.99,5.0,NNE,4.6,-,N/A,Rain,Light Rain,20,2013-02-08 07:35:00
2:55 AM,35.6,34.7,97,29.98,5.0,NNE,4.6,-,0.01,Rain,Rain,20,2013-02-08 07:55:00
3:15 AM,35.2,34.7,98,29.96,5.0,NNE,5.8,-,N/A,,Drizzle,20,2013-02-08 08:15:00
3:35 AM,35.2,34.7,98,29.95,7.0,NNE,4.6,-,N/A,,Drizzle,20,2013-02-08 08:35:00
3:55 AM,35.2,34.7,98,29.94,7.0,North,4.6,-,N/A,,Light Drizzle,10,2013-02-08 08:55:00
4:15 AM,35.6,34.7,97,29.94,7.0,North,3.5,-,N/A,,Light Drizzle,10,2013-02-08 09:15:00
4:35 AM,35.6,34.9,97,29.93,7.0,NNE,5.8,-,N/A,,Overcast,20,2013-02-08 09:35:00
4:55 AM,35.8,35.1,97,29.94,7.0,NNE,3.5,-,N/A,,Overcast,20,2013-02-08 09:55:00
5:15 AM,35.8,34.9,97,29.94,4.0,Calm,Calm,-,N/A,,Heavy Drizzle,0,2013-02-08 10:15:00
5:35 AM,35.6,34.9,97,29.93,4.0,NNE,3.5,-,N/A,Rain,Rain,20,2013-02-08 10:35:00
5:55 AM,35.8,35.1,97,29.92,4.0,North,3.5,-,N/A,Rain,Light Rain,10,2013-02-08 10:55:00
6:15 AM,35.8,35.1,97,29.92,5.0,North,3.5,-,N/A,,Light Drizzle,360,2013-02-08 11:15:00
7:15 AM,36.0,35.2,97,29.92,10.0,North,3.5,-,N/A,,Overcast,10,2013-02-08 12:15:00
7:35 AM,36.3,35.6,97,29.92,10.0,Calm,Calm,-,N/A,,Overcast,0,2013-02-08 12:35:00
7:55 AM,36.5,35.8,97,29.92,10.0,Calm,Calm,-,N/A,,Overcast,0,2013-02-08 12:55:00
8:15 AM,36.9,36.1,97,29.92,10.0,North,3.5,-,N/A,,Overcast,10,2013-02-08 13:15:00
8:35 AM,37.6,36.7,97,29.91,10.0,Calm,Calm,-,N/A,,Overcast,0,2013-02-08 13:35:00
8:55 AM,38.5,37.2,95,29.91,10.0,Calm,Calm,-,N/A,,Overcast,0,2013-02-08 13:55:00
9:15 AM,39.4,37.4,93,29.91,10.0,Calm,Calm,-,N/A,,Overcast,0,2013-02-08 14:15:00
9:35 AM,40.8,38.3,91,29.91,10.0,Calm,Calm,-,N/A,,Overcast,0,2013-02-08 14:35:00
10:15 AM,43.7,39.0,84,29.90,10.0,Calm,Calm,-,N/A,,Mostly Cloudy,0,2013-02-08 15:15:00
10:35 AM,44.6,39.0,81,29.89,10.0,Calm,Calm,-,N/A,,Scattered Clouds,0,2013-02-08 15:35:00
10:55 AM,46.8,40.5,79,29.89,10.0,Calm,Calm,-,N/A,,Clear,0,2013-02-08 15:55:00
11:15 AM,48.4,41.5,77,29.88,10.0,West,3.5,-,N/A,,Scattered Clouds,280,2013-02-08 16:15:00
11:35 AM,49.5,41.4,74,29.88,10.0,Calm,Calm,-,N/A,,Mostly Cloudy,0,2013-02-08 16:35:00
11:55 AM,49.5,41.5,74,29.87,10.0,Calm,Calm,-,N/A,,Mostly Cloudy,0,2013-02-08 16:55:00
12:15 PM,50.5,42.6,74,29.86,10.0,SW,5.8,-,N/A,,Scattered Clouds,230,2013-02-08 17:15:00
12:35 PM,52.5,43.7,72,29.85,10.0,WSW,8.1,-,N/A,,Scattered Clouds,250,2013-02-08 17:35:00
12:55 PM,53.1,43.3,70,29.84,10.0,SW,8.1,-,N/A,,Mostly Cloudy,230,2013-02-08 17:55:00
1:15 PM,52.7,43.5,71,29.83,10.0,SW,8.1,-,N/A,,Overcast,230,2013-02-08 18:15:00
1:35 PM,53.6,44.2,71,29.83,10.0,WSW,8.1,-,N/A,,Overcast,240,2013-02-08 18:35:00
1:55 PM,55.6,43.7,64,29.83,10.0,West,8.1,-,N/A,,Overcast,260,2013-02-08 18:55:00
2:15 PM,54.9,43.9,66,29.83,10.0,West,8.1,11.5,N/A,,Overcast,260,2013-02-08 19:15:00
2:35 PM,55.6,44.1,65,29.83,10.0,West,6.9,-,N/A,,Overcast,280,2013-02-08 19:35:00
2:55 PM,55.4,43.3,64,29.83,10.0,NW,6.9,-,N/A,,Overcast,310,2013-02-08 19:55:00
3:15 PM,56.3,41.2,57,29.83,10.0,NW,6.9,-,N/A,,Scattered Clouds,320,2013-02-08 20:15:00
3:35 PM,58.1,38.8,49,29.83,10.0,WNW,8.1,-,N/A,,Scattered Clouds,290,2013-02-08 20:35:00
3:55 PM,58.5,38.3,47,29.83,10.0,NNW,4.6,18.4,N/A,,Mostly Cloudy,330,2013-02-08 20:55:00
4:15 PM,57.9,35.4,43,29.83,10.0,WNW,4.6,17.3,N/A,,Scattered Clouds,300,2013-02-08 21:15:00
4:35 PM,57.4,34.0,41,29.84,10.0,WNW,8.1,18.4,N/A,,Clear,300,2013-02-08 21:35:00
4:55 PM,57.0,33.4,41,29.85,10.0,NW,6.9,-,N/A,,Clear,320,2013-02-08 21:55:00
5:15 PM,55.9,30.4,38,29.87,10.0,NW,11.5,18.4,N/A,,Scattered Clouds,320,2013-02-08 22:15:00
5:35 PM,53.8,31.1,42,29.89,10.0,NNW,9.2,16.1,N/A,,Scattered Clouds,340,2013-02-08 22:35:00
5:55 PM,50.7,32.0,49,29.91,10.0,North,6.9,23.0,N/A,,Clear,350,2013-02-08 22:55:00
6:15 PM,48.7,31.8,52,29.94,10.0,NW,11.5,17.3,N/A,,Clear,320,2013-02-08 23:15:00
6:35 PM,47.5,30.0,51,29.96,10.0,NW,6.9,16.1,N/A,,Clear,320,2013-02-08 23:35:00
6:55 PM,45.9,29.1,52,29.97,10.0,NNW,6.9,16.1,N/A,,Clear,340,2013-02-08 23:55:00
7:15 PM,44.4,27.9,52,29.98,10.0,NW,4.6,-,N/A,,Clear,320,2013-02-09 00:15:00
7:35 PM,43.9,27.9,53,29.99,10.0,NW,4.6,-,N/A,,Clear,320,2013-02-09 00:35:00
7:55 PM,42.8,28.2,56,30.01,10.0,NW,5.8,-,N/A,,Clear,310,2013-02-09 00:55:00
8:15 PM,43.5,26.8,52,30.01,10.0,NNW,11.5,19.6,N/A,,Clear,340,2013-02-09 01:15:00
8:35 PM,43.0,26.6,52,30.02,10.0,NNW,6.9,17.3,N/A,,Clear,340,2013-02-09 01:35:00
8:55 PM,42.6,26.8,54,30.03,10.0,NNW,5.8,-,N/A,,Scattered Clouds,340,2013-02-09 01:55:00
9:15 PM,42.3,27.0,55,30.04,10.0,NNW,5.8,-,N/A,,Mostly Cloudy,340,2013-02-09 02:15:00
9:35 PM,42.4,27.5,56,30.05,10.0,NW,6.9,-,N/A,,Overcast,310,2013-02-09 02:35:00
9:55 PM,41.9,27.7,57,30.05,10.0,NW,4.6,-,N/A,,Mostly Cloudy,310,2013-02-09 02:55:00
10:15 PM,41.5,26.6,55,30.06,10.0,NNW,3.5,-,N/A,,Scattered Clouds,330,2013-02-09 03:15:00
10:35 PM,41.2,25.7,54,30.06,10.0,NW,10.4,-,N/A,,Clear,320,2013-02-09 03:35:00
10:55 PM,41.0,25.7,55,30.06,10.0,NW,5.8,18.4,N/A,,Clear,320,2013-02-09 03:55:00
11:15 PM,40.5,25.7,56,30.07,10.0,NW,4.6,-,N/A,,Clear,310,2013-02-09 04:15:00
11:35 PM,40.1,26.2,58,30.07,10.0,NW,9.2,-,N/A,,Clear,310,2013-02-09 04:35:00
11:55 PM,40.1,25.9,57,30.06,10.0,NW,8.1,-,N/A,,Clear,310,2013-02-09 04:55:00